Time;durP1;ratioP1;P1;durP2;ratioP2;P2;SDS_P1;SDS_P2;PMS_P1;PMS_P2;Temp;Humidity;BMP_temperature;BMP_pressure;BME280_temperature;BME280_humidity;BME280_pressure;Samples;Min_cycle;Max_cycle;Signal;HPM_P1;HPM_P2
2023/05/17 00:00:52;;;;;;;22.40;4.93;;;9.10;82.50;;;;;;5077596;28;20592;-77
2023/05/17 00:03:18;;;;;;;18.00;4.10;;;9.10;82.50;;;;;;5094952;28;20037;-78
2023/05/17 00:05:43;;;;;;;20.92;4.68;;;9.00;82.70;;;;;;5060947;28;20552;-79
2023/05/17 00:08:10;;;;;;;16.88;3.75;;;9.10;82.70;;;;;;5093788;28;20098;-77
2023/05/17 00:10:35;;;;;;;22.10;5.05;;;9.10;82.80;;;;;;5077316;28;20040;-78
2023/05/17 00:13:02;;;;;;;17.85;4.10;;;9.00;82.90;;;;;;5042362;28;20058;-78
2023/05/17 00:15:28;;;;;;;19.30;4.00;;;9.00;82.80;;;;;;5057502;28;20042;-77
2023/05/17 00:17:54;;;;;;;20.38;4.40;;;9.00;82.90;;;;;;5056548;28;20123;-77
2023/05/17 00:20:23;;;;;;;24.73;4.32;;;9.00;83.00;;;;;;5088691;28;20504;-76
2023/05/17 00:22:48;;;;;;;24.98;4.50;;;9.00;83.00;;;;;;5077467;28;20059;-77
2023/05/17 00:25:14;;;;;;;18.30;4.47;;;9.00;83.10;;;;;;5043827;28;20468;-77
2023/05/17 00:27:40;;;;;;;20.45;4.25;;;9.00;83.10;;;;;;5060365;28;20051;-77
2023/05/17 00:30:06;;;;;;;17.30;4.10;;;9.00;83.20;;;;;;5077154;28;20126;-78
2023/05/17 00:32:32;;;;;;;15.63;3.97;;;9.10;83.10;;;;;;5072969;28;20492;-77
2023/05/17 00:34:57;;;;;;;21.02;4.82;;;9.00;83.00;;;;;;5057121;28;20040;-78
2023/05/17 00:37:23;;;;;;;18.42;3.33;;;9.00;83.10;;;;;;5056719;28;20396;-77
2023/05/17 00:39:49;;;;;;;17.95;4.95;;;9.00;83.20;;;;;;5073406;28;20044;-77
2023/05/17 00:42:14;;;;;;;17.95;3.78;;;8.90;83.30;;;;;;5040133;28;20098;-77
2023/05/17 00:44:40;;;;;;;16.30;4.28;;;9.00;83.30;;;;;;5073687;28;20041;-77
2023/05/17 00:47:06;;;;;;;19.08;3.80;;;8.90;83.50;;;;;;5056775;28;20555;-76
2023/05/17 00:49:32;;;;;;;17.98;3.92;;;8.90;83.40;;;;;;5073449;28;20071;-76
2023/05/17 00:51:58;;;;;;;20.50;4.40;;;8.90;83.50;;;;;;5073748;28;20427;-77
2023/05/17 00:54:25;;;;;;;25.33;3.45;;;8.90;83.60;;;;;;5073359;28;20040;-78
2023/05/17 00:56:52;;;;;;;18.73;3.55;;;8.90;83.50;;;;;;5073212;28;20047;-76
2023/05/17 00:59:19;;;;;;;15.18;3.33;;;8.90;83.40;;;;;;5073276;28;20048;-77
2023/05/17 01:01:46;;;;;;;17.48;4.40;;;8.80;83.50;;;;;;5039957;28;20431;-77
2023/05/17 01:04:12;;;;;;;19.83;3.80;;;8.80;83.50;;;;;;5023301;28;20036;-77
2023/05/17 01:06:37;;;;;;;13.00;3.75;;;8.70;83.60;;;;;;5045981;28;20052;-77
2023/05/17 01:09:04;;;;;;;12.10;3.47;;;8.70;83.60;;;;;;5072872;28;20044;-77
2023/05/17 01:12:08;;;;;;;14.15;3.95;;;8.70;83.90;;;;;;5072630;28;20634;-78
2023/05/17 01:14:46;;;;;;;19.50;3.95;;;8.70;83.70;;;;;;5044925;28;20047;-79
2023/05/17 01:17:50;;;;;;;15.63;3.45;;;8.70;83.80;;;;;;5073240;28;20439;-77
2023/05/17 01:20:36;;;;;;;14.10;3.72;;;8.80;83.70;;;;;;5073087;28;20544;-78
2023/05/17 01:23:27;;;;;;;15.75;3.97;;;8.80;83.50;;;;;;5073067;28;20153;-78
2023/05/17 01:26:27;;;;;;;15.20;2.80;;;8.90;83.10;;;;;;5073125;28;20082;-77
2023/05/17 01:28:55;;;;;;;19.88;3.85;;;8.90;83.10;;;;;;5075432;28;20044;-78
2023/05/17 01:31:22;;;;;;;11.40;2.92;;;9.00;83.00;;;;;;5076267;28;20096;-77
2023/05/17 01:33:47;;;;;;;19.73;3.97;;;9.00;82.90;;;;;;5075951;28;20047;-78
2023/05/17 01:36:13;;;;;;;18.40;4.28;;;9.00;82.80;;;;;;5076051;28;20044;-78
2023/05/17 01:38:39;;;;;;;16.70;3.33;;;9.00;82.90;;;;;;5059778;28;20044;-77
2023/05/17 01:41:14;;;;;;;15.18;4.00;;;9.00;83.00;;;;;;5092838;28;20483;-77
2023/05/17 01:43:43;;;;;;;21.90;4.32;;;9.00;83.10;;;;;;5093018;28;20563;-78
2023/05/17 01:46:18;;;;;;;16.88;3.40;;;9.00;83.10;;;;;;5076670;28;20119;-78
2023/05/17 01:48:52;;;;;;;15.65;3.53;;;9.00;83.20;;;;;;5058571;28;20427;-78
2023/05/17 01:51:19;;;;;;;18.80;4.03;;;9.00;83.40;;;;;;5076717;28;20123;-77
2023/05/17 01:53:56;;;;;;;14.30;3.55;;;9.00;83.50;;;;;;5060037;28;20043;-77
2023/05/17 01:56:30;;;;;;;15.05;3.00;;;9.00;83.60;;;;;;5059858;28;20037;-78
2023/05/17 01:58:58;;;;;;;12.93;2.90;;;9.00;83.70;;;;;;5076364;28;20044;-78
2023/05/17 02:01:27;;;;;;;20.23;4.68;;;9.10;83.80;;;;;;5059874;28;20059;-77
2023/05/17 02:03:53;;;;;;;17.88;3.35;;;9.20;83.80;;;;;;5068846;28;20045;-77
2023/05/17 02:06:18;;;;;;;9.68;2.97;;;9.20;83.50;;;;;;5076090;28;20043;-77
2023/05/17 02:08:44;;;;;;;17.00;2.90;;;9.30;83.20;;;;;;5026351;28;20127;-77
2023/05/17 02:11:10;;;;;;;14.23;2.90;;;9.30;83.00;;;;;;5075999;28;20047;-77
2023/05/17 02:13:36;;;;;;;11.65;3.05;;;9.30;82.90;;;;;;5059631;28;20036;-78
2023/05/17 02:16:03;;;;;;;13.20;3.13;;;9.30;82.60;;;;;;5059538;28;20396;-77
2023/05/17 02:18:29;;;;;;;13.32;2.97;;;9.20;82.60;;;;;;5084034;28;20071;-76
2023/05/17 02:20:55;;;;;;;10.80;2.78;;;9.10;82.60;;;;;;5096215;28;20044;-77
2023/05/17 02:23:23;;;;;;;17.98;2.90;;;9.10;82.60;;;;;;5096583;28;20483;-77
2023/05/17 02:25:49;;;;;;;11.45;2.25;;;9.00;82.60;;;;;;5096318;28;20046;-77
2023/05/17 02:28:15;;;;;;;13.27;3.05;;;9.00;82.70;;;;;;5062549;28;20036;-77
2023/05/17 02:30:41;;;;;;;18.17;3.33;;;9.00;82.50;;;;;;5096001;28;20077;-78
2023/05/17 02:33:07;;;;;;;11.85;2.70;;;9.00;82.30;;;;;;5079293;28;20097;-79
2023/05/17 02:35:33;;;;;;;12.48;2.60;;;8.90;82.00;;;;;;5074841;28;20055;-77
2023/05/17 02:37:59;;;;;;;13.60;2.55;;;8.90;82.00;;;;;;5075647;28;20477;-78
2023/05/17 02:40:24;;;;;;;16.25;2.67;;;8.80;82.00;;;;;;5058790;28;20127;-76
2023/05/17 02:42:50;;;;;;;9.23;2.70;;;8.80;81.80;;;;;;5075308;28;20045;-78
2023/05/17 02:45:16;;;;;;;12.15;2.10;;;8.70;81.90;;;;;;5075306;28;20082;-79
2023/05/17 02:47:42;;;;;;;7.97;2.42;;;8.70;82.00;;;;;;5058675;28;20047;-77
2023/05/17 02:50:08;;;;;;;11.85;3.00;;;8.70;82.00;;;;;;5075251;28;20037;-77
2023/05/17 02:52:34;;;;;;;15.80;2.63;;;8.70;82.00;;;;;;5058660;28;20051;-79
2023/05/17 02:54:59;;;;;;;16.70;2.65;;;8.70;81.90;;;;;;5042092;28;20037;-77
2023/05/17 02:57:25;;;;;;;8.95;2.15;;;8.80;82.00;;;;;;5075012;28;20036;-77
2023/05/17 02:59:51;;;;;;;11.05;2.35;;;8.80;82.10;;;;;;5058164;28;20037;-77
2023/05/17 03:02:16;;;;;;;14.35;3.00;;;8.90;82.00;;;;;;5041661;28;20047;-77
2023/05/17 03:04:42;;;;;;;17.48;4.63;;;8.90;82.10;;;;;;5079792;28;20105;-79
2023/05/17 03:07:08;;;;;;;12.77;3.10;;;8.90;82.10;;;;;;5061395;28;20051;-78
2023/05/17 03:09:34;;;;;;;10.15;3.10;;;8.90;82.20;;;;;;5078501;28;20040;-77
2023/05/17 03:12:00;;;;;;;9.90;2.88;;;8.80;82.20;;;;;;5061501;28;20476;-78
2023/05/17 03:14:26;;;;;;;12.30;2.03;;;8.90;82.30;;;;;;5094885;28;20156;-78
2023/05/17 03:16:51;;;;;;;10.85;2.50;;;8.90;82.00;;;;;;5078348;28;20036;-79
2023/05/17 03:19:17;;;;;;;10.38;2.28;;;8.90;81.90;;;;;;5077844;28;20048;-78
2023/05/17 03:21:43;;;;;;;7.88;1.85;;;8.80;81.70;;;;;;5058229;28;20044;-79
2023/05/17 03:24:08;;;;;;;9.63;2.50;;;8.90;81.30;;;;;;5057886;28;20072;-76
2023/05/17 03:26:34;;;;;;;8.43;3.42;;;8.90;80.60;;;;;;5041603;28;20068;-77
2023/05/17 03:29:00;;;;;;;18.65;2.85;;;8.80;80.30;;;;;;5024255;28;20037;-77
2023/05/17 03:31:26;;;;;;;10.98;2.55;;;8.80;80.30;;;;;;5040889;28;20037;-76
2023/05/17 03:33:51;;;;;;;11.15;2.03;;;8.80;80.10;;;;;;5073856;28;20048;-77
2023/05/17 03:36:17;;;;;;;15.07;2.25;;;8.80;80.00;;;;;;5056894;28;20119;-76
2023/05/17 03:38:43;;;;;;;10.00;2.47;;;8.90;79.60;;;;;;5040470;28;20047;-77
2023/05/17 03:41:09;;;;;;;8.52;2.53;;;8.90;79.20;;;;;;5074321;28;20105;-77
2023/05/17 03:43:34;;;;;;;7.55;2.20;;;8.90;78.60;;;;;;5057598;28;20045;-77
2023/05/17 03:46:00;;;;;;;9.63;2.20;;;8.90;78.40;;;;;;5074343;28;20139;-78
2023/05/17 03:48:26;;;;;;;10.05;2.58;;;9.00;78.50;;;;;;5057633;28;20045;-78
2023/05/17 03:50:52;;;;;;;9.40;1.92;;;9.00;78.30;;;;;;5057888;28;20471;-77
2023/05/17 03:53:17;;;;;;;8.40;2.03;;;9.00;78.60;;;;;;5060419;28;20107;-77
2023/05/17 03:55:43;;;;;;;9.27;3.10;;;9.00;78.30;;;;;;5060954;28;20036;-77
2023/05/17 03:58:09;;;;;;;7.72;2.70;;;9.00;78.30;;;;;;5077668;28;20040;-77
2023/05/17 04:00:35;;;;;;;7.55;2.10;;;9.00;78.00;;;;;;5077754;28;20464;-78
2023/05/17 04:03:00;;;;;;;6.22;1.50;;;9.00;77.80;;;;;;5077576;28;20044;-75
2023/05/17 04:05:26;;;;;;;5.53;1.75;;;9.00;76.50;;;;;;5077166;28;20476;-78
2023/05/17 04:07:53;;;;;;;6.18;1.77;;;9.00;76.60;;;;;;5093930;28;20063;-79
2023/05/17 04:10:19;;;;;;;6.70;2.08;;;9.00;76.30;;;;;;5072643;28;20036;-78
2023/05/17 04:12:44;;;;;;;10.25;2.13;;;9.00;76.20;;;;;;5090302;28;20051;-76
2023/05/17 04:15:10;;;;;;;8.27;1.70;;;9.00;75.90;;;;;;5056768;28;20032;-78
2023/05/17 04:17:36;;;;;;;9.57;2.10;;;9.00;75.50;;;;;;5090421;28;20044;-78
2023/05/17 04:20:05;;;;;;;9.80;2.17;;;8.90;75.50;;;;;;5090511;28;20036;-78
2023/05/17 04:22:31;;;;;;;10.75;2.88;;;8.90;75.60;;;;;;5073454;28;20082;-78
2023/05/17 04:24:57;;;;;;;7.20;2.03;;;8.90;75.70;;;;;;5056880;28;20054;-78
2023/05/17 04:27:22;;;;;;;8.85;1.60;;;8.80;75.10;;;;;;5090123;28;20048;-78
2023/05/17 04:29:48;;;;;;;10.30;2.40;;;8.80;75.00;;;;;;5090365;28;20124;-78
2023/05/17 04:32:14;;;;;;;10.35;1.85;;;8.70;75.10;;;;;;5073377;28;20476;-77
2023/05/17 04:34:40;;;;;;;8.63;2.28;;;8.70;74.90;;;;;;5056441;28;20408;-77
2023/05/17 04:37:06;;;;;;;13.90;2.75;;;8.60;74.70;;;;;;5056174;28;20044;-75
2023/05/17 04:39:32;;;;;;;13.27;2.10;;;8.70;74.30;;;;;;5089427;28;20040;-79
2023/05/17 04:41:57;;;;;;;10.75;1.60;;;8.60;74.30;;;;;;5056161;28;20047;-79
2023/05/17 04:44:23;;;;;;;10.25;2.55;;;8.60;74.40;;;;;;5073922;28;20045;-79
2023/05/17 04:46:49;;;;;;;11.48;2.10;;;8.60;74.60;;;;;;5075362;28;20043;-78
2023/05/17 04:49:15;;;;;;;6.30;1.60;;;8.60;74.60;;;;;;5050235;28;20073;-78
2023/05/17 04:51:40;;;;;;;8.23;1.83;;;8.60;74.70;;;;;;5067034;28;20078;-81
2023/05/17 04:54:07;;;;;;;11.20;2.10;;;8.70;74.80;;;;;;5072188;28;20042;-78
2023/05/17 04:56:35;;;;;;;12.27;2.13;;;8.70;75.00;;;;;;5064536;28;20070;-78
2023/05/17 04:59:01;;;;;;;10.45;2.58;;;8.70;74.90;;;;;;5078635;28;20040;-78
2023/05/17 05:01:30;;;;;;;10.52;2.40;;;8.80;75.10;;;;;;5080847;28;20119;-78
2023/05/17 05:03:57;;;;;;;8.68;2.20;;;8.80;75.20;;;;;;5056235;28;20032;-79
2023/05/17 05:06:23;;;;;;;7.68;1.83;;;8.90;75.00;;;;;;5075109;28;20036;-79
2023/05/17 05:08:49;;;;;;;7.65;2.55;;;9.00;74.90;;;;;;5071316;28;20050;-79
2023/05/17 05:11:15;;;;;;;8.23;2.42;;;9.00;74.80;;;;;;5035586;28;20396;-77
2023/05/17 05:13:43;;;;;;;11.23;1.77;;;9.10;74.70;;;;;;5056967;28;20032;-79
2023/05/17 05:16:09;;;;;;;13.75;2.15;;;9.10;74.70;;;;;;5072362;28;20422;-77
2023/05/17 05:18:35;;;;;;;10.13;2.28;;;9.10;74.70;;;;;;5076468;28;20093;-76
2023/05/17 05:21:01;;;;;;;14.02;2.13;;;9.10;74.40;;;;;;5075825;28;20044;-80
2023/05/17 05:23:26;;;;;;;12.48;2.22;;;9.20;74.30;;;;;;5076391;28;20052;-78
2023/05/17 05:25:52;;;;;;;15.27;2.88;;;9.20;74.50;;;;;;5075480;28;20446;-78
2023/05/17 05:28:18;;;;;;;8.85;1.88;;;9.20;74.80;;;;;;5058887;28;20043;-78
2023/05/17 05:30:44;;;;;;;8.45;2.63;;;9.20;74.90;;;;;;5075687;28;20044;-81
2023/05/17 05:33:09;;;;;;;9.32;1.63;;;9.30;75.10;;;;;;5094250;28;20035;-79
2023/05/17 05:35:35;;;;;;;24.80;3.03;;;9.30;75.50;;;;;;5099452;28;20130;-78
2023/05/17 05:38:01;;;;;;;10.13;3.72;;;9.50;75.60;;;;;;5068809;28;20024;-78
2023/05/17 05:40:27;;;;;;;13.10;2.38;;;9.50;75.20;;;;;;5117659;28;20047;-78
2023/05/17 05:42:52;;;;;;;10.70;1.73;;;9.50;75.00;;;;;;5101043;28;20038;-78
2023/05/17 05:45:18;;;;;;;10.15;2.15;;;9.50;75.20;;;;;;5100129;28;20021;-79
2023/05/17 05:47:44;;;;;;;12.13;2.85;;;9.60;74.80;;;;;;5099894;28;20038;-78
2023/05/17 05:50:10;;;;;;;15.50;3.22;;;9.60;74.40;;;;;;5114912;28;20039;-78
2023/05/17 05:52:36;;;;;;;10.23;2.90;;;9.60;74.70;;;;;;5115935;28;20020;-78
2023/05/17 05:55:02;;;;;;;12.65;3.00;;;9.60;75.00;;;;;;5076539;28;20036;-78
2023/05/17 05:57:28;;;;;;;14.00;3.20;;;9.60;75.70;;;;;;5076670;28;20040;-79
2023/05/17 05:59:53;;;;;;;18.67;3.03;;;9.70;75.40;;;;;;5093125;28;20047;-80
2023/05/17 06:02:20;;;;;;;14.00;3.42;;;9.70;75.10;;;;;;5077288;28;20047;-78
2023/05/17 06:04:47;;;;;;;11.52;2.35;;;9.70;74.70;;;;;;5076042;28;20127;-78
2023/05/17 06:07:13;;;;;;;10.57;2.90;;;9.90;73.60;;;;;;5093039;28;20048;-81
2023/05/17 06:09:39;;;;;;;9.40;2.95;;;9.90;72.10;;;;;;5073093;28;20070;-79
2023/05/17 06:12:05;;;;;;;12.45;3.55;;;9.90;72.20;;;;;;5075957;28;20036;-78
2023/05/17 06:14:31;;;;;;;15.15;3.28;;;10.00;72.20;;;;;;5093028;28;20093;-78
2023/05/17 06:16:56;;;;;;;13.45;2.53;;;10.00;71.00;;;;;;5059802;28;20040;-80
2023/05/17 06:19:22;;;;;;;11.77;2.78;;;10.10;70.80;;;;;;5076143;28;20059;-80
2023/05/17 06:21:48;;;;;;;9.95;2.92;;;10.20;69.30;;;;;;5059098;28;20127;-79
2023/05/17 06:24:14;;;;;;;16.65;2.80;;;10.20;69.10;;;;;;5076184;28;20044;-80
2023/05/17 06:26:40;;;;;;;11.38;2.88;;;10.30;68.80;;;;;;5092835;28;20173;-79
2023/05/17 06:29:05;;;;;;;11.13;2.72;;;10.30;68.40;;;;;;5059397;28;20122;-78
2023/05/17 06:31:31;;;;;;;14.25;3.75;;;10.30;68.90;;;;;;5093092;28;20044;-80
2023/05/17 06:33:57;;;;;;;10.90;3.00;;;10.30;69.30;;;;;;5093784;28;20036;-81
2023/05/17 06:36:23;;;;;;;12.05;3.05;;;10.30;69.10;;;;;;5079257;28;20039;-78
2023/05/17 06:38:49;;;;;;;18.75;3.30;;;10.30;69.60;;;;;;5079344;28;20078;-80
2023/05/17 06:41:15;;;;;;;13.02;3.10;;;10.30;69.40;;;;;;5096139;28;20063;-79
2023/05/17 06:43:40;;;;;;;17.15;3.15;;;10.40;70.00;;;;;;5046085;28;20127;-79
2023/05/17 06:46:06;;;;;;;10.57;2.53;;;10.30;70.10;;;;;;5079110;28;20032;-78
2023/05/17 06:48:32;;;;;;;8.38;2.40;;;10.40;69.10;;;;;;5079024;28;20047;-79
2023/05/17 06:50:57;;;;;;;13.57;2.53;;;10.40;67.70;;;;;;5062703;28;20502;-80
2023/05/17 06:53:23;;;;;;;12.90;2.55;;;10.30;67.40;;;;;;5078760;28;20085;-80
2023/05/17 06:55:49;;;;;;;15.10;3.30;;;10.30;67.50;;;;;;5078877;28;20051;-81
2023/05/17 06:58:14;;;;;;;10.63;2.50;;;10.30;67.50;;;;;;5062119;28;20040;-79
2023/05/17 07:00:40;;;;;;;9.93;2.38;;;10.40;66.80;;;;;;5062447;28;20047;-78
2023/05/17 07:03:06;;;;;;;7.00;2.00;;;10.50;66.80;;;;;;5078731;28;20385;-78
2023/05/17 07:05:31;;;;;;;12.85;3.63;;;10.50;67.10;;;;;;5095663;28;20067;-80
2023/05/17 07:07:58;;;;;;;10.73;2.75;;;10.60;66.30;;;;;;5095144;28;20048;-80
2023/05/17 07:10:24;;;;;;;8.30;2.58;;;10.70;65.30;;;;;;5095341;28;20036;-79
2023/05/17 07:12:49;;;;;;;9.82;1.90;;;10.70;65.00;;;;;;5095134;28;20123;-80
2023/05/17 07:15:15;;;;;;;10.75;2.95;;;10.70;65.60;;;;;;5095454;28;20093;-78
2023/05/17 07:17:41;;;;;;;21.50;4.30;;;10.70;65.80;;;;;;5095026;28;20049;-77
2023/05/17 07:20:07;;;;;;;9.65;2.78;;;10.70;66.00;;;;;;5095581;28;20085;-79
2023/05/17 07:22:32;;;;;;;16.10;2.55;;;10.60;66.10;;;;;;5095135;28;20051;-81
2023/05/17 07:24:58;;;;;;;9.68;3.20;;;10.70;65.30;;;;;;5078321;28;20040;-79
2023/05/17 07:27:24;;;;;;;11.77;2.22;;;10.70;65.30;;;;;;5061265;28;20036;-80
2023/05/17 07:29:50;;;;;;;13.98;3.03;;;10.70;66.20;;;;;;5078040;28;20092;-78
2023/05/17 07:32:16;;;;;;;8.57;2.38;;;10.70;66.70;;;;;;5077975;28;20036;-78
2023/05/17 07:34:42;;;;;;;12.52;2.97;;;10.60;66.60;;;;;;5061225;28;20051;-78
2023/05/17 07:37:08;;;;;;;16.85;3.53;;;10.70;66.80;;;;;;5078098;28;20036;-79
2023/05/17 07:39:33;;;;;;;11.27;2.85;;;10.70;66.30;;;;;;5094487;28;20054;-78
2023/05/17 07:41:59;;;;;;;9.35;2.35;;;10.80;66.80;;;;;;5077832;28;20070;-78
2023/05/17 07:44:25;;;;;;;12.82;2.70;;;11.00;66.00;;;;;;5094576;28;20048;-77
2023/05/17 07:46:51;;;;;;;14.15;2.72;;;11.00;65.60;;;;;;5093545;28;20484;-78
2023/05/17 07:49:17;;;;;;;9.10;2.15;;;11.10;64.90;;;;;;5077476;28;20048;-79
2023/05/17 07:51:42;;;;;;;10.50;2.78;;;11.20;64.10;;;;;;5060562;28;20062;-80
2023/05/17 07:54:08;;;;;;;11.68;2.92;;;11.10;63.40;;;;;;5061009;28;20051;-78
2023/05/17 07:56:34;;;;;;;8.38;1.83;;;11.10;62.50;;;;;;5094294;28;20043;-79
2023/05/17 07:58:59;;;;;;;12.32;2.13;;;11.10;62.60;;;;;;5093984;28;20483;-78
2023/05/17 08:01:26;;;;;;;9.48;2.47;;;11.10;62.90;;;;;;5093687;28;20036;-78
2023/05/17 08:03:52;;;;;;;13.25;3.65;;;11.20;63.00;;;;;;5077203;28;20032;-80
2023/05/17 08:06:18;;;;;;;11.48;3.20;;;11.20;63.40;;;;;;5059817;28;20071;-78
2023/05/17 08:08:44;;;;;;;12.90;3.25;;;11.20;64.30;;;;;;5059953;28;20076;-77
2023/05/17 08:11:11;;;;;;;10.25;2.50;;;11.20;64.80;;;;;;5076953;28;20032;-80
2023/05/17 08:13:37;;;;;;;11.95;3.45;;;11.30;65.10;;;;;;5093386;28;20043;-79
2023/05/17 08:16:06;;;;;;;10.02;2.42;;;11.30;65.40;;;;;;5093864;28;20127;-79
2023/05/17 08:18:33;;;;;;;13.25;3.03;;;11.30;65.80;;;;;;5060788;28;20108;-78
2023/05/17 08:20:58;;;;;;;12.35;2.80;;;11.30;67.10;;;;;;5093635;28;20036;-79
2023/05/17 08:23:24;;;;;;;20.38;3.67;;;11.30;68.40;;;;;;5076830;28;20050;-79
2023/05/17 08:25:50;;;;;;;15.10;3.53;;;11.40;69.30;;;;;;5076303;28;20043;-78
2023/05/17 08:28:16;;;;;;;17.25;3.50;;;11.40;69.80;;;;;;5060078;28;20036;-79
2023/05/17 08:30:42;;;;;;;15.07;2.72;;;11.40;69.50;;;;;;5093839;28;20551;-76
2023/05/17 08:33:10;;;;;;;13.98;3.20;;;11.50;69.10;;;;;;5093232;28;20123;-80
2023/05/17 08:35:36;;;;;;;13.13;2.47;;;11.50;68.60;;;;;;5076486;28;20032;-79
2023/05/17 08:38:02;;;;;;;14.77;2.80;;;11.50;67.70;;;;;;5076230;28;20067;-79
2023/05/17 08:40:28;;;;;;;18.42;3.20;;;11.50;66.70;;;;;;5076226;28;20072;-79
2023/05/17 08:42:54;;;;;;;13.88;3.42;;;11.50;67.00;;;;;;5093211;28;20138;-79
2023/05/17 08:45:20;;;;;;;9.52;2.92;;;11.60;67.30;;;;;;5045139;28;20199;-80
2023/05/17 08:47:47;;;;;;;11.00;2.47;;;11.70;66.40;;;;;;5062056;28;20109;-80
2023/05/17 08:50:13;;;;;;;11.43;3.38;;;11.70;66.60;;;;;;5059450;28;20400;-76
2023/05/17 08:52:40;;;;;;;14.93;3.50;;;11.70;66.20;;;;;;5062087;28;20041;-78
2023/05/17 08:55:07;;;;;;;9.98;2.90;;;11.70;65.40;;;;;;5055107;28;20082;-79
2023/05/17 08:57:37;;;;;;;12.38;2.30;;;11.70;65.50;;;;;;5081542;28;20383;-78
2023/05/17 09:00:23;;;;;;;12.43;3.45;;;11.70;66.20;;;;;;5044777;28;20645;-79
2023/05/17 09:02:49;;;;;;;10.40;2.05;;;11.70;65.40;;;;;;5079606;28;20052;-78
2023/05/17 09:05:15;;;;;;;11.48;2.30;;;11.60;65.30;;;;;;5047765;28;20036;-81
2023/05/17 09:07:41;;;;;;;11.40;2.65;;;11.60;65.30;;;;;;5062537;28;20056;-80
2023/05/17 09:10:08;;;;;;;9.45;2.33;;;11.60;65.00;;;;;;5054779;28;20040;-80
2023/05/17 09:12:34;;;;;;;10.18;2.30;;;11.70;64.50;;;;;;5082226;28;20053;-80
2023/05/17 09:15:13;;;;;;;13.75;3.53;;;11.80;64.40;;;;;;5046192;28;20045;-78
2023/05/17 09:17:40;;;;;;;11.93;2.90;;;12.00;64.10;;;;;;5065005;28;20388;-78
2023/05/17 09:20:07;;;;;;;10.30;3.00;;;12.40;62.60;;;;;;5079259;28;20076;-78
2023/05/17 09:22:34;;;;;;;11.30;2.80;;;12.50;62.10;;;;;;5060390;28;20059;-79
2023/05/17 09:25:03;;;;;;;7.15;2.65;;;12.70;60.90;;;;;;5045732;28;20040;-78
2023/05/17 09:27:30;;;;;;;11.43;2.72;;;12.80;60.90;;;;;;5064854;28;20045;-78
2023/05/17 09:29:57;;;;;;;7.30;2.15;;;12.80;60.40;;;;;;5078787;28;20056;-80
2023/05/17 09:32:23;;;;;;;10.07;2.75;;;12.80;59.30;;;;;;5064828;28;20139;-79
2023/05/17 09:34:52;;;;;;;12.13;2.72;;;12.70;59.20;;;;;;5075160;28;20044;-78
2023/05/17 09:37:19;;;;;;;11.32;2.78;;;12.70;59.40;;;;;;5077120;28;20518;-80
2023/05/17 09:39:46;;;;;;;9.00;1.92;;;12.80;59.80;;;;;;5062060;28;20044;-78
2023/05/17 09:42:13;;;;;;;10.15;2.72;;;12.80;59.40;;;;;;5078776;28;20488;-79
2023/05/17 09:44:46;;;;;;;8.63;2.40;;;12.80;59.00;;;;;;5078345;28;20056;-79
2023/05/17 09:47:23;;;;;;;14.15;2.17;;;13.00;58.90;;;;;;5060564;28;20381;-79
2023/05/17 09:49:50;;;;;;;7.43;2.08;;;13.20;57.70;;;;;;5065155;28;20032;-78
2023/05/17 09:52:20;;;;;;;8.20;1.90;;;13.40;56.60;;;;;;5076109;28;20055;-79
2023/05/17 09:54:53;;;;;;;7.43;2.00;;;13.50;55.80;;;;;;5061615;28;20111;-78
2023/05/17 09:57:20;;;;;;;10.48;1.92;;;13.80;55.70;;;;;;5075558;28;20040;-78
2023/05/17 09:59:46;;;;;;;9.45;2.25;;;13.90;54.10;;;;;;5060541;28;20048;-78
2023/05/17 10:02:32;;;;;;;11.38;2.38;;;14.00;54.80;;;;;;5077993;28;20044;-79
2023/05/17 10:05:04;;;;;;;8.68;2.30;;;14.00;54.80;;;;;;5059412;28;21426;-79
2023/05/17 10:07:30;;;;;;;12.65;2.17;;;14.00;55.10;;;;;;5075677;28;20071;-77
2023/05/17 10:09:57;;;;;;;8.20;2.40;;;13.70;55.10;;;;;;5078465;28;20115;-78
2023/05/17 10:12:26;;;;;;;8.70;2.38;;;13.60;54.20;;;;;;5083141;28;20049;-79
2023/05/17 10:14:54;;;;;;;10.13;2.20;;;13.60;55.10;;;;;;5066638;28;20152;-77
2023/05/17 10:17:21;;;;;;;7.00;2.10;;;13.50;54.70;;;;;;5043653;28;20400;-78
2023/05/17 10:19:47;;;;;;;7.78;2.40;;;13.40;54.20;;;;;;5059419;28;20374;-76
2023/05/17 10:22:15;;;;;;;7.68;2.60;;;13.40;55.30;;;;;;5075747;28;20081;-76
2023/05/17 10:24:43;;;;;;;8.02;1.77;;;13.60;55.50;;;;;;5075784;28;20557;-78
2023/05/17 10:27:09;;;;;;;11.05;2.28;;;13.70;56.80;;;;;;5075978;28;20044;-76
2023/05/17 10:29:37;;;;;;;7.68;2.50;;;13.80;56.40;;;;;;5075657;28;20087;-75
2023/05/17 10:32:08;;;;;;;9.25;2.30;;;13.80;55.20;;;;;;5075792;28;20036;-76
2023/05/17 10:34:38;;;;;;;8.93;2.30;;;13.80;55.10;;;;;;5075665;28;20036;-77
2023/05/17 10:37:04;;;;;;;11.63;2.42;;;13.70;56.20;;;;;;5058756;28;20481;-77
2023/05/17 10:39:37;;;;;;;10.10;2.10;;;13.60;57.20;;;;;;5059186;28;20466;-77
2023/05/17 10:42:08;;;;;;;12.05;2.33;;;13.50;58.20;;;;;;5075533;28;20059;-77
2023/05/17 10:44:36;;;;;;;10.82;2.72;;;13.50;58.80;;;;;;5075389;28;20080;-77
2023/05/17 10:47:03;;;;;;;7.63;2.20;;;13.40;58.40;;;;;;5075549;28;20548;-77
2023/05/17 10:49:30;;;;;;;8.15;2.47;;;13.30;58.40;;;;;;5025995;28;20599;-76
2023/05/17 10:52:11;;;;;;;9.00;2.30;;;13.20;58.60;;;;;;5075295;28;20037;-77
2023/05/17 10:54:40;;;;;;;11.88;2.53;;;13.10;59.40;;;;;;5058546;28;20036;-78
2023/05/17 10:57:07;;;;;;;19.17;3.42;;;13.00;61.10;;;;;;5075493;28;20045;-77
2023/05/17 10:59:34;;;;;;;7.60;3.25;;;13.00;62.00;;;;;;5075234;28;20048;-76
2023/05/17 11:02:02;;;;;;;11.85;2.58;;;13.10;60.80;;;;;;5075359;28;20051;-78
2023/05/17 11:04:40;;;;;;;14.10;3.90;;;13.10;60.40;;;;;;5075130;28;20041;-77
2023/05/17 11:07:15;;;;;;;15.38;2.42;;;13.00;61.50;;;;;;5074875;28;20447;-77
2023/05/17 11:09:43;;;;;;;10.93;2.42;;;13.00;62.70;;;;;;5074731;28;20045;-77
2023/05/17 11:12:09;;;;;;;12.07;2.40;;;13.00;63.50;;;;;;5058242;28;20051;-77
2023/05/17 11:14:44;;;;;;;9.23;2.80;;;13.00;63.30;;;;;;5058333;28;20037;-77
2023/05/17 11:17:18;;;;;;;11.07;2.20;;;13.00;63.60;;;;;;5057990;28;20037;-76
2023/05/17 11:20:01;;;;;;;13.25;3.45;;;13.20;63.90;;;;;;5074326;28;20040;-77
2023/05/17 11:22:33;;;;;;;10.18;2.15;;;13.30;62.90;;;;;;5074758;28;20037;-75
2023/05/17 11:25:04;;;;;;;9.60;3.03;;;13.40;62.80;;;;;;5074921;28;20051;-76
2023/05/17 11:27:45;;;;;;;9.70;2.40;;;13.50;61.70;;;;;;5075040;28;20044;-77
2023/05/17 11:30:29;;;;;;;13.25;2.78;;;13.50;61.10;;;;;;5057752;28;20044;-77
2023/05/17 11:33:00;;;;;;;10.35;3.13;;;13.60;61.90;;;;;;5057745;28;20044;-78
2023/05/17 11:35:28;;;;;;;10.85;2.88;;;13.70;61.40;;;;;;5074387;28;20701;-77
2023/05/17 11:38:12;;;;;;;11.48;2.65;;;13.60;61.80;;;;;;5074253;28;20051;-77
2023/05/17 11:40:38;;;;;;;;;;;13.70;61.30;;;;;;5061110;28;20051;-78
2023/05/17 11:43:24;;;;;;;9.23;2.35;;;13.70;61.00;;;;;;5057755;28;20359;-78
2023/05/17 11:46:01;;;;;;;13.57;2.42;;;13.70;60.40;;;;;;5057964;28;20157;-79
2023/05/17 11:48:29;;;;;;;12.07;3.30;;;13.60;59.90;;;;;;5074206;28;20072;-77
2023/05/17 11:50:55;;;;;;;10.18;2.70;;;13.50;60.00;;;;;;5057742;28;20059;-76
2023/05/17 11:53:23;;;;;;;12.30;2.90;;;13.50;60.10;;;;;;5057356;28;20079;-77
2023/05/17 11:55:50;;;;;;;12.95;3.25;;;13.40;59.80;;;;;;5057922;28;20036;-77
2023/05/17 11:58:18;;;;;;;6.10;2.35;;;13.50;60.40;;;;;;5057026;28;20481;-77
2023/05/17 12:00:44;;;;;;;16.15;2.58;;;13.60;60.30;;;;;;5073437;28;20037;-77
2023/05/17 12:03:22;;;;;;;11.40;2.30;;;14.10;60.50;;;;;;5073656;28;20040;-77
2023/05/17 12:06:00;;;;;;;10.70;2.05;;;14.50;60.60;;;;;;5074152;28;20381;-77
2023/05/17 12:08:27;;;;;;;9.02;2.50;;;14.60;58.30;;;;;;5056805;28;20056;-79
2023/05/17 12:10:55;;;;;;;12.75;2.22;;;14.50;58.20;;;;;;5057244;28;20067;-77
2023/05/17 12:13:21;;;;;;;6.68;2.15;;;14.50;57.30;;;;;;5057046;28;20436;-75
2023/05/17 12:15:56;;;;;;;8.18;2.47;;;14.40;57.50;;;;;;5074097;28;20044;-76
2023/05/17 12:18:34;;;;;;;12.00;2.30;;;14.40;57.30;;;;;;5057106;28;20432;-78
2023/05/17 12:21:00;;;;;;;6.43;1.83;;;14.40;57.40;;;;;;5056956;28;20186;-77
2023/05/17 12:23:31;;;;;;;7.18;2.00;;;14.60;57.10;;;;;;5057261;28;20040;-79
2023/05/17 12:26:08;;;;;;;9.05;2.17;;;14.80;55.80;;;;;;5057364;28;20401;-77
2023/05/17 12:28:36;;;;;;;8.32;2.25;;;15.00;53.50;;;;;;5057019;28;20042;-78
2023/05/17 12:31:04;;;;;;;10.63;2.45;;;15.00;53.50;;;;;;5040466;28;20058;-77
2023/05/17 12:33:39;;;;;;;11.27;3.10;;;14.90;54.20;;;;;;5074024;28;20044;-79
2023/05/17 12:36:06;;;;;;;9.75;2.65;;;14.80;53.70;;;;;;5057717;28;20037;-78
2023/05/17 12:38:33;;;;;;;9.27;2.08;;;14.90;53.40;;;;;;5040271;28;20040;-79
2023/05/17 12:41:07;;;;;;;7.55;1.90;;;14.90;53.60;;;;;;5040527;28;20060;-79
2023/05/17 12:43:33;;;;;;;;;;;14.90;53.00;;;;;;5093119;28;20070;-78
2023/05/17 12:46:10;;;;;;;9.05;2.10;;;14.80;52.10;;;;;;5093665;28;20374;-79
2023/05/17 12:48:38;;;;;;;8.77;1.85;;;15.00;53.00;;;;;;5093569;28;20063;-79